This is the latest recevied weather packets stored in our database for station/object Kirchdorf. If no packets are shown the sender has not sent any weather packets the latest 10 day(s).
| Time | Temp. | Humidity | Pressure | Rain* | Wind** | Luminosity | Snow |
|---|---|---|---|---|---|---|---|
| 1788534131 | 29.44° C | 45% | 1015.2 hPa | 0 mm | - | - | - |
| 1788532330 | 29.44° C | 44% | 1015.6 hPa | 0 mm | - | - | - |
| 1788530531 | 29.44° C | 46% | 1015.9 hPa | 0 mm | - | - | - |
| 1788528730 | 28.89° C | 45% | 1016.1 hPa | 0 mm | - | - | - |
| 1788526931 | 28.89° C | 46% | 1016.2 hPa | 0 mm | - | - | - |
| 1788525130 | 28.33° C | 47% | 1016.6 hPa | 0 mm | - | - | - |
| 1788523331 | 27.78° C | 49% | 1017.3 hPa | 0 mm | - | - | - |
| 1788521530 | 27.78° C | 48% | 1017.4 hPa | 0 mm | - | - | - |
| 1788519731 | 27.22° C | 47% | 1018 hPa | 0 mm | - | - | - |
| 1788517930 | 27.22° C | 50% | 1018.5 hPa | 0 mm | - | - | - |
| 1788516130 | 26.11° C | 52% | 1019 hPa | 0 mm | - | - | - |
| 1788514330 | 25.56° C | 53% | 1019.4 hPa | 0 mm | - | - | - |
| 1788512530 | 25° C | 56% | 1019.8 hPa | 0 mm | - | - | - |
| 1788510730 | 23.89° C | 58% | 1019.7 hPa | 0 mm | - | - | - |
| 1788508932 | 22.78° C | 61% | 1020 hPa | 0 mm | - | - | - |
| 1788507130 | 21.67° C | 63% | 1020.3 hPa | 0 mm | - | - | - |
| 1788505329 | 20.56° C | 67% | 1020.6 hPa | 0 mm | - | - | - |
| 1788503530 | 18.89° C | 73% | 1020.6 hPa | 0 mm | - | - | - |
| 1788501738 | 17.22° C | 76% | 1020.5 hPa | 0 mm | - | - | - |
| 1788499929 | 16.11° C | 82% | 1020.5 hPa | 0 mm | - | - | - |
| 1788498129 | 16.11° C | 82% | 1020.7 hPa | 0 mm | - | - | - |
| 1788496329 | 17.78° C | 76% | 1020.8 hPa | 0 mm | - | - | - |
| 1788494531 | 17.78° C | 78% | 1021.1 hPa | 0 mm | - | - | - |
| 1788492730 | 17.78° C | 76% | 1021.2 hPa | 0 mm | - | - | - |
| 1788490930 | 18.33° C | 74% | 1021.2 hPa | 0 mm | - | - | - |
* Rain since midnight (hover to see other rain measurements)
** Current wind speed in m/s (hover to see current wind gust speed)